Flight Track Log - Related Links

Times and Time Zones

All times are in EDT time to prevent confusion due to time zone crossing. See the FEX100 flight status page for this flight to view local times or setup timezone preferences in your user account.

Time Position Orientation Groundspeed Altitude Reporting Facility
EDT Latitude Longitude Course Direction KTS MPH feet Rate Location/Type
07:28PM 46.5500 -80.6500 145° Southeast 160 184 6,600  Level Toronto Center
07:30PM 46.4500 -80.6000 158° South 170 196 10,000 1,500 Climbing Toronto Center
07:31PM 46.2925 -80.6189 151° Southeast  Level Estimated
07:31PM 46.4167 -80.5667 145° Southeast 170 196 11,100  Level Toronto Center
07:32PM 46.3667 -80.5333 155° Southeast 180 207 12,500 1,300 Climbing Toronto Center
07:33PM 46.3167 -80.5000 155° Southeast 180 207 13,700 1,000 Climbing Toronto Center
07:35PM 46.2333 -80.4500 157° South 180 207 15,500 900 Climbing Toronto Center
07:36PM 46.1833 -80.4000 145° Southeast 190 219 16,400 500 Climbing Toronto Center
07:38PM 46.0833 -80.3333 155° Southeast 210 242 17,000 200 Climbing Toronto Center
07:39PM 46.0333 -80.3000 155° Southeast 220 253 17,000  Level Toronto Center
07:40PM 45.9667 -80.2833 170° South 230 265 17,000  Level Toronto Center
07:41PM 45.9000 -80.2333 152° Southeast 230 265 17,000  Level Toronto Center
07:42PM 45.8500 -80.1833 145° Southeast 230 265 17,000  Level Toronto Center
07:43PM 45.7833 -80.1500 161° South 230 265 17,000  Level Toronto Center
07:44PM 45.7333 -80.1167 155° Southeast 230 265 17,000 50 Level Toronto Center
07:45PM 45.6833 -80.0667 145° Southeast 230 265 17,100 50 Climbing Toronto Center
07:46PM 45.6167 -80.0333 161° South 230 265 17,100 -50 Level Toronto Center
07:47PM 45.5667 -79.9833 145° Southeast 230 265 17,000 -50 Descending Toronto Center
07:48PM 45.5000 -79.9667 170° South 230 265 17,000  Level Toronto Center
07:49PM 45.4500 -79.9167 145° Southeast 230 265 17,000  Level Toronto Center
07:50PM 45.3833 -79.9000 170° South 230 265 17,000 50 Level Toronto Center
07:51PM 45.3333 -79.8500 145° Southeast 230 265 17,100 33 Climbing Toronto Center
07:53PM 45.2167 -79.8000 163° South 220 253 17,100 -33 Level Toronto Center
07:54PM 45.1500 -79.7667 161° South 220 253 17,000 -50 Descending Toronto Center
07:55PM 45.1000 -79.7500 167° South 220 253 17,000  Level Toronto Center
07:57PM 44.9833 -79.7000 163° South 220 253 17,000  Level Toronto Center
07:58PM 44.9167 -79.6833 170° South 220 253 17,000  Level Toronto Center
08:00PM 44.8000 -79.6333 163° South 220 253 17,000 -1,043 Level Toronto Center
08:03PM 44.6000 -79.5667 153° Southeast 280 322 11,800 -1,989 Descending Toronto Center
08:06PM 44.3500 -79.4667 193° South 280 322 5,100 -1,560 Descending Toronto Center
08:08PM 44.2167 -79.4167 165° South 240 276 4,000 -333 Descending Toronto Center
08:12PM 44.0000 -79.2833 206° Southwest 220 253 3,100 -129 Descending Toronto Center
08:15PM 43.8333 -79.1667 206° Southwest 230 265 3,100  Level Toronto Center
08:16PM 43.7833 -79.1167 144° Southeast 190 219 3,100 -150 Level Toronto Center
08:19PM 43.7500 -79.2333 293° West 140 161 2,500 -320 Descending Toronto Center
08:21PM 43.8167 -79.3167 318° Northwest 130 150 1,500 -500 Descending Toronto Center
08:22PM 43.8333 -79.3333 324° Northwest 120 138 1,000 -500 Descending Toronto Center
08:24PM 43.8500 -79.3667 206° Southwest  Level FlightAware Approximate
08:31PM 43.8622 -79.3700 206° Southwest  Level Estimated
08:32PM 43.8622 -79.3700 206° Southwest  Level Estimated

Login

Don't have an account? Register now (free) for customized features, flight alerts, and more!